Time;durP1;ratioP1;P1;durP2;ratioP2;P2;SDS_P1;SDS_P2;PMS_P1;PMS_P2;Temp;Humidity;BMP_temperature;BMP_pressure;BME280_temperature;BME280_humidity;BME280_pressure;Samples;Min_cycle;Max_cycle;Signal;HPM_P1;HPM_P2
2022/11/16 00:02:05;;;;;;;15.82;8.30;;;;;;;9.33;100.00;97516.38;4988756;28;20030;-79
2022/11/16 00:04:30;;;;;;;15.68;7.20;;;;;;;9.39;100.00;97528.97;4993316;28;20093;-78
2022/11/16 00:06:55;;;;;;;14.15;7.60;;;;;;;9.35;100.00;97525.91;4989895;28;20496;-77
2022/11/16 00:09:21;;;;;;;10.70;5.80;;;;;;;9.33;100.00;97524.47;4985945;28;20030;-78
2022/11/16 00:15:55;;;;;;;10.70;5.70;;;;;;;9.34;100.00;97532.34;4993090;28;20042;-80
2022/11/16 00:18:21;;;;;;;11.45;6.00;;;;;;;9.37;100.00;97537.28;5004806;28;20010;-77
2022/11/16 00:20:46;;;;;;;10.18;6.13;;;;;;;9.31;100.00;97522.00;4990601;28;20033;-78
2022/11/16 00:23:11;;;;;;;12.52;6.30;;;;;;;9.29;100.00;97529.47;5014639;28;20042;-81
2022/11/16 00:25:36;;;;;;;10.00;5.95;;;;;;;9.03;100.00;97498.25;4998444;28;20036;-79
2022/11/16 00:28:02;;;;;;;10.65;5.82;;;;;;;9.29;100.00;97536.75;4990900;28;20026;-80
2022/11/16 00:30:27;;;;;;;14.13;6.32;;;;;;;9.15;100.00;97511.81;4989038;28;20142;-80
2022/11/16 00:32:52;;;;;;;12.98;6.88;;;;;;;9.28;100.00;97540.53;4989318;28;20121;-78
2022/11/16 00:35:18;;;;;;;12.70;6.50;;;;;;;9.17;100.00;97528.63;4990562;28;20472;-80
2022/11/16 00:37:43;;;;;;;14.07;7.22;;;;;;;9.02;100.00;97507.41;5004324;28;20030;-80
2022/11/16 00:40:09;;;;;;;15.38;7.80;;;;;;;9.10;100.00;97531.38;4990476;28;20080;-79
2022/11/16 00:42:34;;;;;;;11.90;6.88;;;;;;;8.94;100.00;97505.81;4993166;28;20523;-80
2022/11/16 00:44:59;;;;;;;13.27;7.75;;;;;;;9.14;100.00;97537.97;4987434;28;20066;-79
2022/11/16 00:47:26;;;;;;;12.75;7.32;;;;;;;8.99;100.00;97526.75;4992390;28;20026;-79
2022/11/16 00:49:51;;;;;;;14.30;7.40;;;;;;;9.06;100.00;97545.53;4983299;28;20652;-79
2022/11/16 00:52:16;;;;;;;11.10;6.72;;;;;;;8.82;100.00;97512.19;4990131;28;20030;-81
2022/11/16 00:54:41;;;;;;;14.05;6.97;;;;;;;9.13;100.00;97573.28;5004580;28;20034;-81
2022/11/16 00:57:07;;;;;;;16.58;7.82;;;;;;;9.16;100.00;97567.41;5013299;28;20015;-80
2022/11/16 00:59:32;;;;;;;14.20;7.57;;;;;;;9.05;100.00;97533.09;4990589;28;20551;-79
2022/11/16 01:01:57;;;;;;;11.13;6.70;;;;;;;9.07;100.00;97539.09;4983684;28;20031;-80
2022/11/16 01:04:23;;;;;;;15.25;8.02;;;;;;;9.05;100.00;97533.09;4991705;28;20090;-79
2022/11/16 01:06:48;;;;;;;12.25;6.95;;;;;;;9.02;100.00;97518.19;4985062;28;20030;-79
2022/11/16 01:09:13;;;;;;;18.67;9.80;;;;;;;9.05;100.00;97516.91;4997542;28;20057;-80
2022/11/16 01:14:23;;;;;;;14.05;7.90;;;;;;;8.95;100.00;97502.06;4982373;28;20140;-79
2022/11/16 01:16:49;;;;;;;16.27;8.32;;;;;;;9.05;100.00;97523.13;4986397;28;20030;-79
2022/11/16 01:19:14;;;;;;;18.90;8.32;;;;;;;9.11;100.00;97532.19;4996173;28;20023;-77
2022/11/16 01:21:40;;;;;;;14.95;7.97;;;;;;;9.04;100.00;97521.50;5012895;28;20472;-76
2022/11/16 01:24:05;;;;;;;14.40;7.28;;;;;;;8.97;100.00;97499.97;4991997;28;20488;-77
2022/11/16 01:26:30;;;;;;;18.80;7.70;;;;;;;9.07;100.00;97520.22;4986416;28;20060;-77
2022/11/16 01:28:58;;;;;;;13.52;6.65;;;;;;;9.10;100.00;97523.28;4989456;28;20033;-78
2022/11/16 01:31:23;;;;;;;11.15;6.72;;;;;;;8.98;100.00;97501.59;4987520;28;20639;-77
2022/11/16 01:33:48;;;;;;;11.50;7.07;;;;;;;8.84;100.00;97486.63;4987618;28;20053;-78
2022/11/16 01:36:14;;;;;;;13.00;6.18;;;;;;;9.05;100.00;97506.13;4989239;28;20030;-77
2022/11/16 01:38:41;;;;;;;12.13;7.20;;;;;;;9.04;100.00;97502.59;4981356;28;20034;-77
2022/11/16 01:41:06;;;;;;;11.30;6.63;;;;;;;8.95;100.00;97495.84;4985291;28;21986;-76
2022/11/16 01:44:02;;;;;;;12.38;6.97;;;;;;;8.99;100.00;97513.25;4989548;28;20077;-78
2022/11/16 01:46:28;;;;;;;12.52;6.00;;;;;;;9.08;100.00;97532.66;4984573;28;20388;-79
2022/11/16 01:49:04;;;;;;;12.95;7.03;;;;;;;9.03;100.00;97519.81;4991198;28;20034;-79
2022/11/16 01:51:31;;;;;;;10.95;5.57;;;;;;;8.97;100.00;97505.38;4985890;28;20060;-79
2022/11/16 01:54:00;;;;;;;11.80;5.82;;;;;;;9.03;100.00;97500.94;5003786;28;20026;-80
2022/11/16 01:56:25;;;;;;;6.72;4.30;;;;;;;8.92;100.00;97469.34;4985519;28;20110;-79
2022/11/16 01:58:51;;;;;;;11.23;5.60;;;;;;;8.95;100.00;97472.41;4980679;28;20097;-79
2022/11/16 02:01:16;;;;;;;15.25;6.32;;;;;;;9.12;100.00;97496.91;4989659;28;20034;-79
2022/11/16 02:03:42;;;;;;;8.50;5.38;;;;;;;8.90;100.00;97455.25;5005967;28;20128;-78
2022/11/16 02:06:25;;;;;;;7.80;5.30;;;;;;;9.09;100.00;97486.56;4988806;28;20026;-78
2022/11/16 02:12:27;;;;;;;7.25;5.15;;;;;;;9.05;100.00;97479.16;4987062;28;20093;-80
2022/11/16 02:15:18;;;;;;;8.07;4.75;;;;;;;9.03;100.00;97475.84;4982259;28;20046;-78
2022/11/16 02:21:39;;;;;;;10.13;3.90;;;;;;;9.10;100.00;97468.50;4986721;28;20076;-78
2022/11/16 02:24:53;;;;;;;6.18;3.97;;;;;;;9.06;100.00;97461.91;5005520;28;20045;-81
2022/11/16 02:27:49;;;;;;;6.97;3.72;;;;;;;9.12;100.00;97456.44;4950124;28;20080;-78
2022/11/16 02:30:16;;;;;;;8.15;3.40;;;;;;;9.13;100.00;97444.56;4933765;29;20070;-77
2022/11/16 02:32:50;;;;;;;10.75;3.83;;;;;;;9.12;100.00;97456.44;4971563;28;20301;-77
2022/11/16 02:35:31;;;;;;;6.55;3.90;;;;;;;9.12;100.00;97463.72;4990941;28;20074;-80
2022/11/16 02:38:12;;;;;;;10.02;5.22;;;;;;;9.13;100.00;97468.03;4986899;28;20027;-78
2022/11/16 02:40:42;;;;;;;9.18;4.63;;;;;;;9.02;100.00;97461.53;4986585;28;20054;-79
2022/11/16 02:43:10;;;;;;;9.57;4.68;;;;;;;9.12;100.00;97477.19;4990395;28;20038;-78
2022/11/16 02:45:42;;;;;;;6.18;4.15;;;;;;;8.99;100.00;97465.50;4985733;28;20026;-80
2022/11/16 02:48:16;;;;;;;6.45;3.95;;;;;;;9.04;100.00;97478.34;4990038;28;20035;-79
2022/11/16 02:50:42;;;;;;;7.18;4.40;;;;;;;9.04;100.00;97477.47;4993796;28;20030;-79
2022/11/16 02:53:08;;;;;;;7.80;3.83;;;;;;;9.02;100.00;97488.50;4990319;28;20045;-78
2022/11/16 02:55:35;;;;;;;6.10;3.67;;;;;;;9.06;100.00;97489.69;4992561;28;20030;-79
2022/11/16 02:58:06;;;;;;;6.80;4.15;;;;;;;8.83;100.00;97457.19;5003933;28;20247;-80
2022/11/16 03:00:42;;;;;;;5.68;3.17;;;;;;;9.06;100.00;97486.19;4992619;28;20030;-80
2022/11/16 03:03:20;;;;;;;7.10;3.63;;;;;;;9.05;100.00;97493.44;4991816;28;20036;-79
2022/11/16 03:05:51;;;;;;;8.10;4.00;;;;;;;8.97;100.00;97482.97;4994469;28;20022;-78
2022/11/16 03:08:19;;;;;;;8.80;4.28;;;;;;;9.04;100.00;97488.28;4993385;28;20026;-79
2022/11/16 03:13:37;;;;;;;8.27;4.10;;;;;;;8.98;100.00;97477.34;4989518;28;20069;-77
2022/11/16 03:16:09;;;;;;;6.78;4.28;;;;;;;8.73;100.00;97442.38;4989867;28;20027;-77
2022/11/16 03:18:38;;;;;;;7.80;4.97;;;;;;;8.87;100.00;97467.31;4989482;28;20488;-77
2022/11/16 03:21:17;;;;;;;6.57;3.70;;;;;;;9.03;100.00;97498.25;5007240;28;20027;-78
2022/11/16 03:23:44;;;;;;;6.13;3.78;;;;;;;8.95;100.00;97485.88;4991926;28;20041;-78
2022/11/16 03:26:13;;;;;;;8.82;4.15;;;;;;;9.00;100.00;97477.13;4989932;28;20040;-78
2022/11/16 03:28:46;;;;;;;;;;;;;;;9.06;100.00;97496.97;4990489;28;20037;-77
2022/11/16 03:31:24;;;;;;;8.25;3.17;;;;;;;9.13;100.00;97492.31;4988880;28;19920;-76
2022/11/16 03:33:54;;;;;;;6.43;3.70;;;;;;;8.98;100.00;97480.03;4992310;28;20022;-77
2022/11/16 03:36:40;;;;;;;7.20;3.40;;;;;;;9.11;100.00;97489.03;4988311;28;20088;-78
2022/11/16 03:39:21;;;;;;;6.95;3.13;;;;;;;8.89;100.00;97462.53;4988849;28;20049;-78
2022/11/16 03:41:47;;;;;;;4.93;2.80;;;;;;;9.06;100.00;97489.69;4984637;28;20065;-79
2022/11/16 03:44:14;;;;;;;4.88;3.10;;;;;;;9.04;100.00;97477.47;4988753;28;20077;-77
2022/11/16 03:46:42;;;;;;;7.10;3.47;;;;;;;9.02;100.00;97479.59;4988451;28;20026;-77
2022/11/16 03:49:07;;;;;;;5.60;2.78;;;;;;;9.14;100.00;97496.66;4989780;28;20512;-77
2022/11/16 03:51:32;;;;;;;7.13;3.13;;;;;;;9.07;100.00;97471.66;4990728;28;20041;-77
2022/11/16 03:53:58;;;;;;;6.75;3.47;;;;;;;9.12;100.00;97469.94;4985432;28;20035;-78
2022/11/16 03:56:23;;;;;;;9.40;3.28;;;;;;;9.13;100.00;97458.06;4984759;28;20037;-79
2022/11/16 03:58:48;;;;;;;6.78;3.30;;;;;;;8.95;100.00;97431.94;4987678;28;20029;-77
2022/11/16 04:01:14;;;;;;;6.25;3.20;;;;;;;9.13;100.00;97457.25;4990916;28;20037;-76
2022/11/16 04:03:39;;;;;;;5.30;2.88;;;;;;;9.05;100.00;97469.19;4990338;28;20090;-76
2022/11/16 04:25:37;;;;;;;8.25;3.92;;;;;;;9.14;100.00;97504.75;4986251;28;20108;-75
2022/11/16 04:28:12;;;;;;;9.43;5.20;;;;;;;9.20;100.00;97511.97;4979203;28;20045;-76
2022/11/16 04:38:53;;;;;;;8.07;3.70;;;;;;;9.13;100.00;97513.91;4975744;28;20052;-75
2022/11/16 04:44:02;;;;;;;6.57;4.13;;;;;;;9.16;100.00;97537.75;4982877;28;20041;-75
2022/11/16 04:49:11;;;;;;;7.80;4.30;;;;;;;9.03;100.00;97519.00;4983021;28;20056;-77
2022/11/16 04:51:36;;;;;;;7.35;4.85;;;;;;;8.99;100.00;97514.06;4998548;28;20046;-75
2022/11/16 04:54:02;;;;;;;10.18;4.53;;;;;;;9.07;100.00;97521.03;4983988;28;20045;-78
2022/11/16 04:56:27;;;;;;;13.48;4.45;;;;;;;8.97;100.00;97515.34;4988142;28;20026;-78
2022/11/16 04:58:52;;;;;;;11.30;5.43;;;;;;;8.96;100.00;97514.53;4984116;28;20471;-76
2022/11/16 05:02:06;;;;;;;12.52;5.43;;;;;;;8.78;100.00;97490.25;4985748;28;20033;-75
2022/11/16 05:04:03;;;;;;;7.72;4.80;;;;;;;8.92;100.00;97501.69;4990699;28;20508;-76
2022/11/16 05:06:28;;;;;;;8.68;5.28;;;;;;;8.94;100.00;97505.81;4987718;28;20061;-79
2022/11/16 05:08:54;;;;;;;8.70;5.18;;;;;;;9.02;100.00;97517.38;5000804;28;20030;-76
2022/11/16 05:11:19;;;;;;;7.90;4.78;;;;;;;9.09;100.00;97527.03;4989537;28;20033;-74
2022/11/16 05:13:44;;;;;;;12.35;4.88;;;;;;;8.98;100.00;97517.78;5004003;28;20034;-75
2022/11/16 05:16:09;;;;;;;13.20;5.68;;;;;;;9.05;100.00;97533.09;4979399;28;20033;-74
2022/11/16 05:18:35;;;;;;;9.40;5.03;;;;;;;9.03;100.00;97524.41;4988135;28;20038;-75
2022/11/16 05:21:00;;;;;;;10.75;5.88;;;;;;;9.06;100.00;97516.69;4982214;28;20109;-77
2022/11/16 05:26:09;;;;;;;10.38;5.40;;;;;;;8.99;100.00;97503.28;4984005;28;20044;-82
2022/11/16 05:28:35;;;;;;;8.18;4.88;;;;;;;9.05;100.00;97516.91;4990300;28;20450;-79
2022/11/16 05:31:00;;;;;;;9.00;5.30;;;;;;;9.10;100.00;97520.59;4988754;28;20030;-84
2022/11/16 05:33:25;;;;;;;7.93;4.82;;;;;;;9.05;100.00;97506.94;4991827;28;20034;-80
2022/11/16 05:35:51;;;;;;;10.85;5.93;;;;;;;8.82;100.00;97475.25;4992298;28;20648;-83
2022/11/16 05:38:17;;;;;;;9.55;5.25;;;;;;;9.08;100.00;97528.06;4999506;28;20040;-76
2022/11/16 05:40:43;;;;;;;11.68;5.93;;;;;;;8.89;100.00;97497.59;4986591;28;20031;-79
2022/11/16 05:43:08;;;;;;;12.85;5.20;;;;;;;8.97;100.00;97510.75;4992061;28;20038;-77
2022/11/16 05:45:33;;;;;;;12.45;6.03;;;;;;;8.99;100.00;97516.75;4987849;28;20065;-78
2022/11/16 05:47:59;;;;;;;11.77;5.90;;;;;;;8.96;100.00;97513.69;5004933;28;20080;-87
2022/11/16 05:50:24;;;;;;;11.50;6.10;;;;;;;9.05;100.00;97533.09;4989454;28;20407;-77
2022/11/16 05:52:49;;;;;;;16.65;6.80;;;;;;;8.97;100.00;97520.72;4987138;28;20113;-80
2022/11/16 05:55:15;;;;;;;10.57;6.70;;;;;;;8.85;100.00;97514.44;4984514;28;20084;-72
2022/11/16 05:57:40;;;;;;;12.80;7.30;;;;;;;8.89;100.00;97527.25;4983162;28;20042;-74
2022/11/16 06:00:06;;;;;;;8.88;5.65;;;;;;;8.83;100.00;97505.72;4984502;28;20026;-76
2022/11/16 06:02:32;;;;;;;14.88;8.45;;;;;;;8.90;100.00;97534.28;4981703;28;20034;-84
2022/11/16 06:04:57;;;;;;;14.70;7.45;;;;;;;8.87;100.00;97523.94;4988906;28;20026;-80
2022/11/16 06:07:22;;;;;;;12.02;7.35;;;;;;;8.91;100.00;97508.97;4989341;28;20026;-80
2022/11/16 06:09:48;;;;;;;12.95;6.85;;;;;;;8.67;100.00;97472.94;4988577;28;20030;-85
2022/11/16 06:12:13;;;;;;;13.60;6.05;;;;;;;8.78;100.00;97498.34;4989485;28;20050;-83
2022/11/16 06:14:38;;;;;;;10.07;5.18;;;;;;;8.80;100.00;97514.28;4989019;28;20537;-73
2022/11/16 06:17:04;;;;;;;16.33;7.13;;;;;;;8.91;100.00;97544.03;4984424;28;20481;-71
2022/11/16 06:19:29;;;;;;;19.45;7.10;;;;;;;8.76;100.00;97535.47;4987016;28;20026;-80
2022/11/16 06:21:55;;;;;;;14.55;8.73;;;;;;;8.58;100.00;97517.41;4988914;28;20030;-81
2022/11/16 06:24:20;;;;;;;16.58;8.30;;;;;;;8.50;100.00;97505.03;4993430;28;20058;-79
2022/11/16 06:26:46;;;;;;;13.63;7.88;;;;;;;8.60;100.00;97515.31;5000027;28;20053;-82
2022/11/16 06:29:13;;;;;;;15.50;8.80;;;;;;;8.61;100.00;97532.31;4987525;28;20112;-79
2022/11/16 06:31:39;;;;;;;14.98;8.18;;;;;;;8.64;100.00;97554.25;5010726;28;20476;-76
2022/11/16 06:34:04;;;;;;;17.33;7.65;;;;;;;8.58;100.00;97546.22;5005230;28;20122;-85
2022/11/16 06:36:29;;;;;;;13.65;7.93;;;;;;;8.47;100.00;97537.00;4990965;28;20014;-86
2022/11/16 06:38:57;;;;;;;15.55;8.63;;;;;;;8.46;100.00;97536.19;5003071;28;20019;-76
2022/11/16 06:41:22;;;;;;;16.73;7.50;;;;;;;8.54;100.00;97552.06;4993136;28;20437;-84
2022/11/16 06:43:48;;;;;;;16.27;7.10;;;;;;;8.62;100.00;97552.81;4991457;28;20113;-73
2022/11/16 06:46:13;;;;;;;12.23;6.78;;;;;;;8.74;100.00;97564.53;4991628;28;20076;-78
2022/11/16 06:48:38;;;;;;;17.67;7.22;;;;;;;8.75;100.00;97566.16;4995147;28;20034;-78
2022/11/16 06:51:04;;;;;;;15.63;6.85;;;;;;;8.55;100.00;97529.44;4985812;28;20094;-81
2022/11/16 06:53:29;;;;;;;14.35;6.53;;;;;;;8.71;100.00;97573.06;4987903;28;20033;-78
2022/11/16 06:55:59;;;;;;;14.13;6.28;;;;;;;8.48;100.00;97549.41;4989911;28;20121;-79
2022/11/16 06:58:24;;;;;;;;;;;;;;;8.73;100.00;97582.59;4989535;28;20114;-79
2022/11/16 07:00:49;;;;;;;11.57;6.43;;;;;;;8.71;100.00;97575.75;4997429;28;20497;-78
2022/11/16 07:03:14;;;;;;;10.52;6.30;;;;;;;8.63;100.00;97574.19;4991098;28;20564;-78
2022/11/16 07:05:43;;;;;;;11.20;5.68;;;;;;;8.72;100.00;97589.03;4992546;28;20040;-80
2022/11/16 07:08:08;;;;;;;18.73;10.13;;;;;;;8.61;100.00;97576.25;4991028;28;20085;-78
2022/11/16 07:10:34;;;;;;;15.50;9.85;;;;;;;8.72;100.00;97588.19;4986539;28;20504;-78
2022/11/16 07:13:02;;;;;;;15.23;7.95;;;;;;;8.82;100.00;97602.00;4989699;28;20022;-77
2022/11/16 07:15:27;;;;;;;12.23;5.93;;;;;;;8.69;100.00;97594.84;4986406;28;20023;-79
2022/11/16 07:17:52;;;;;;;9.23;5.60;;;;;;;8.74;100.00;97591.50;4987179;28;20026;-80
2022/11/16 07:20:18;;;;;;;11.82;5.95;;;;;;;8.89;100.00;97624.34;4988169;28;20045;-78
2022/11/16 07:22:43;;;;;;;12.25;6.03;;;;;;;8.89;100.00;97618.94;5000579;28;20038;-72
2022/11/16 07:25:08;;;;;;;9.55;6.00;;;;;;;8.78;100.00;97596.22;4983781;28;20057;-73
2022/11/16 07:27:34;;;;;;;9.80;5.60;;;;;;;8.88;100.00;97609.22;4986751;28;20054;-73
2022/11/16 07:30:00;;;;;;;9.65;5.47;;;;;;;9.00;100.00;97610.13;4980245;28;20484;-73
2022/11/16 07:32:27;;;;;;;11.73;5.18;;;;;;;8.99;100.00;97613.88;4987005;28;20038;-73
2022/11/16 07:34:53;;;;;;;13.55;6.22;;;;;;;9.00;100.00;97603.91;4988832;28;20030;-80
2022/11/16 07:37:18;;;;;;;12.23;6.70;;;;;;;9.06;100.00;97615.69;4990810;28;20546;-73
2022/11/16 07:39:44;;;;;;;9.90;6.55;;;;;;;9.08;100.00;97624.38;4988614;28;20505;-72
2022/11/16 07:42:10;;;;;;;17.15;8.10;;;;;;;9.02;100.00;97614.50;4985795;28;20022;-73
2022/11/16 07:44:36;;;;;;;13.27;7.00;;;;;;;9.13;100.00;97624.53;4985252;28;20543;-71
2022/11/16 07:47:01;;;;;;;16.48;7.82;;;;;;;9.29;100.00;97637.44;5006143;28;20033;-71
2022/11/16 07:49:27;;;;;;;12.52;6.90;;;;;;;9.38;100.00;97633.41;4985464;28;20058;-71
2022/11/16 07:51:52;;;;;;;12.48;6.03;;;;;;;9.41;100.00;97632.13;4978326;28;20023;-71
2022/11/16 07:54:17;;;;;;;8.65;5.53;;;;;;;9.40;100.00;97625.88;4988922;28;20109;-71
2022/11/16 07:56:43;;;;;;;7.97;5.40;;;;;;;9.40;100.00;97623.19;4987085;28;20061;-78
2022/11/16 07:59:08;;;;;;;7.97;5.63;;;;;;;9.45;100.00;97622.53;5003876;28;20038;-78
2022/11/16 08:01:34;;;;;;;14.00;5.85;;;;;;;9.68;100.00;97640.75;4995502;28;20556;-81
2022/11/16 08:04:02;;;;;;;8.55;5.03;;;;;;;9.76;100.00;97626.94;4997100;28;20025;-79
2022/11/16 08:06:29;;;;;;;7.53;5.18;;;;;;;9.98;100.00;97632.69;4996397;28;20026;-80
2022/11/16 08:08:54;;;;;;;12.88;5.18;;;;;;;10.22;100.00;97616.56;4985912;28;20034;-70
2022/11/16 08:11:21;;;;;;;6.25;4.20;;;;;;;10.56;100.00;97631.28;4989104;28;20038;-80
2022/11/16 08:13:46;;;;;;;11.60;4.80;;;;;;;10.77;100.00;97646.13;4995424;28;20620;-78
2022/11/16 08:16:17;;;;;;;8.10;4.10;;;;;;;10.89;100.00;97638.00;4991571;28;20073;-71
2022/11/16 08:18:43;;;;;;;7.93;4.18;;;;;;;10.82;100.00;97629.16;4988532;28;20081;-82
2022/11/16 08:21:12;;;;;;;7.53;4.55;;;;;;;10.82;100.00;97627.31;4992748;28;20034;-79
2022/11/16 08:23:41;;;;;;;6.93;4.50;;;;;;;10.71;100.00;97620.81;4993695;28;20435;-76
2022/11/16 08:26:15;;;;;;;10.60;4.90;;;;;;;10.71;100.00;97633.50;4988782;28;20035;-74
2022/11/16 08:28:42;;;;;;;6.35;4.30;;;;;;;10.54;100.00;97609.03;4988980;28;20035;-74
2022/11/16 08:31:13;;;;;;;10.20;4.07;;;;;;;10.74;100.00;97628.47;4983288;28;20431;-83
2022/11/16 08:33:39;;;;;;;7.82;4.68;;;;;;;10.72;100.00;97625.19;4987580;28;20026;-77
2022/11/16 08:36:06;;;;;;;8.55;4.53;;;;;;;10.92;100.00;97615.88;5000806;28;20041;-80
2022/11/16 08:38:32;;;;;;;8.75;5.15;;;;;;;10.97;100.00;97616.00;4989689;28;20022;-82
2022/11/16 08:40:57;;;;;;;7.00;4.60;;;;;;;11.16;100.00;97614.84;5004329;28;20032;-81
2022/11/16 08:43:22;;;;;;;8.35;4.47;;;;;;;11.05;100.00;97615.66;4990354;28;20042;-82
2022/11/16 08:45:48;;;;;;;12.07;4.40;;;;;;;10.78;100.00;97563.06;5000934;28;20936;-80
2022/11/16 08:48:14;;;;;;;7.25;4.13;;;;;;;11.01;100.00;97600.13;4985326;28;20033;-85
2022/11/16 08:50:39;;;;;;;8.43;4.18;;;;;;;10.78;100.00;97590.94;4985480;28;20054;-76
2022/11/16 08:53:04;;;;;;;7.47;4.75;;;;;;;10.80;100.00;97605.06;4984306;28;20041;-73
2022/11/16 08:55:29;;;;;;;5.45;3.92;;;;;;;11.05;100.00;97626.47;4986654;28;20408;-73
2022/11/16 08:57:55;;;;;;;9.65;4.10;;;;;;;11.44;100.00;97610.56;4981576;28;20022;-76
2022/11/16 09:00:20;;;;;;;8.70;5.00;;;;;;;11.80;100.00;97600.47;5002004;28;20669;-80
2022/11/16 09:02:46;;;;;;;7.80;4.07;;;;;;;11.94;100.00;97596.44;4988658;28;20456;-78
2022/11/16 09:05:11;;;;;;;8.95;3.50;;;;;;;11.85;100.00;97600.56;4985537;28;21192;-85
2022/11/16 09:07:38;;;;;;;7.07;4.05;;;;;;;12.03;100.00;97603.13;4983049;28;20168;-78
2022/11/16 09:10:05;;;;;;;5.70;3.95;;;;;;;12.10;100.00;97599.44;4987394;28;20050;-69
2022/11/16 09:12:32;;;;;;;5.03;3.10;;;;;;;12.28;100.00;97593.81;5001938;28;20065;-76
2022/11/16 09:14:57;;;;;;;7.72;2.97;;;;;;;12.45;100.00;97596.56;4996725;28;20033;-75
2022/11/16 09:17:22;;;;;;;6.25;3.00;;;;;;;13.29;100.00;97603.88;4979636;28;20033;-74
2022/11/16 09:19:49;;;;;;;3.45;2.45;;;;;;;13.50;100.00;97594.09;4985660;28;20555;-74
2022/11/16 09:22:14;;;;;;;3.35;2.28;;;;;;;13.01;100.00;97589.28;4982761;28;20054;-75
2022/11/16 09:24:39;;;;;;;6.60;2.50;;;;;;;12.73;100.00;97595.66;4981482;28;20121;-75
2022/11/16 09:27:05;;;;;;;5.65;2.55;;;;;;;12.43;100.00;97569.66;4979006;28;20503;-76
2022/11/16 09:29:31;;;;;;;6.50;3.20;;;;;;;13.43;100.00;97610.56;4983674;28;20030;-76
2022/11/16 09:31:57;;;;;;;5.25;2.00;;;;;;;15.40;100.00;97572.16;5001254;28;20022;-72
2022/11/16 09:34:23;;;;;;;3.08;1.80;;;;;;;17.40;100.00;97570.56;4983095;28;20762;-73
2022/11/16 09:36:48;;;;;;;3.15;1.77;;;;;;;19.45;100.00;97561.81;4977138;28;20022;-81
2022/11/16 09:39:13;;;;;;;4.13;1.10;;;;;;;22.24;77.52;97553.09;5005180;28;20057;-78
2022/11/16 09:41:51;;;;;;;4.72;1.45;;;;;;;23.98;63.03;97540.38;4987725;28;20061;-77
2022/11/16 09:44:33;;;;;;;7.40;1.23;;;;;;;25.59;54.04;97553.09;4991087;28;20026;-76
2022/11/16 09:46:59;;;;;;;3.70;1.02;;;;;;;27.31;50.86;97563.28;4985958;28;20584;-77
2022/11/16 09:49:34;;;;;;;3.42;0.77;;;;;;;28.45;48.54;97564.63;4999210;28;20149;-77
2022/11/16 09:52:04;;;;;;;2.60;1.35;;;;;;;27.99;46.79;97550.88;4985524;28;20392;-72
2022/11/16 09:54:34;;;;;;;3.15;1.00;;;;;;;27.31;46.55;97563.28;4984319;28;20034;-73
2022/11/16 09:57:04;;;;;;;4.40;0.88;;;;;;;24.56;51.50;97563.22;4983217;28;20050;-75
2022/11/16 09:59:40;;;;;;;4.65;0.95;;;;;;;23.96;54.77;97561.97;4982226;28;20543;-74
2022/11/16 10:02:33;;;;;;;3.25;0.82;;;;;;;26.21;48.27;97563.56;4986769;28;20034;-72
2022/11/16 10:05:20;;;;;;;2.67;0.82;;;;;;;27.30;45.38;97567.22;4982226;28;20031;-73
2022/11/16 10:07:51;;;;;;;4.75;0.90;;;;;;;26.08;46.84;97570.16;4985701;28;20030;-74
2022/11/16 10:10:24;;;;;;;2.60;0.73;;;;;;;25.28;49.49;97561.66;4983990;28;20018;-75
2022/11/16 10:13:02;;;;;;;3.13;0.70;;;;;;;24.56;52.27;97569.56;4980131;28;20037;-73
2022/11/16 10:15:46;;;;;;;2.53;0.70;;;;;;;24.85;51.15;97560.59;4985810;28;20034;-73
2022/11/16 10:18:43;;;;;;;4.50;1.02;;;;;;;27.08;45.52;97553.72;5004780;28;20061;-75
2022/11/16 10:21:31;;;;;;;3.10;0.90;;;;;;;28.37;42.54;97563.56;4987340;28;20038;-79
2022/11/16 10:24:19;;;;;;;4.70;0.80;;;;;;;27.03;44.61;97563.06;4987274;28;20030;-73
2022/11/16 10:26:58;;;;;;;2.92;1.00;;;;;;;25.68;47.03;97555.84;4988999;28;20057;-72
2022/11/16 10:29:45;;;;;;;2.10;0.80;;;;;;;22.95;51.76;97561.59;4986437;28;20178;-72
2022/11/16 10:32:16;;;;;;;2.20;0.90;;;;;;;21.32;57.30;97555.75;4987041;28;20551;-71
2022/11/16 10:34:52;;;;;;;5.05;0.90;;;;;;;19.88;62.39;97553.63;4986614;28;20101;-72
2022/11/16 10:37:18;;;;;;;3.53;0.80;;;;;;;18.30;72.32;97547.72;4983751;28;20030;-72
2022/11/16 10:39:46;;;;;;;2.17;0.80;;;;;;;17.70;90.79;97537.63;4982988;28;20464;-72
2022/11/16 10:42:21;;;;;;;2.40;0.80;;;;;;;16.98;100.00;97536.22;4983390;28;20062;-71
2022/11/16 10:44:56;;;;;;;3.10;0.52;;;;;;;15.80;100.00;97514.31;4980180;28;20030;-71
2022/11/16 10:47:41;;;;;;;3.58;0.55;;;;;;;15.11;100.00;97537.13;4982521;28;20041;-71
2022/11/16 10:50:31;;;;;;;2.92;0.55;;;;;;;15.20;100.00;97532.03;4983768;28;20027;-70
2022/11/16 10:52:57;;;;;;;2.35;0.57;;;;;;;15.77;100.00;97528.44;4978214;28;20073;-70
2022/11/16 10:55:23;;;;;;;1.70;0.70;;;;;;;16.21;100.00;97514.34;4980905;28;20027;-71
2022/11/16 10:58:01;;;;;;;3.92;0.50;;;;;;;16.38;100.00;97523.13;4976787;28;20018;-72
2022/11/16 11:00:40;;;;;;;2.13;0.50;;;;;;;15.88;100.00;97529.31;4981221;28;20435;-71
2022/11/16 11:03:06;;;;;;;5.80;0.90;;;;;;;15.84;100.00;97528.22;4985743;28;20030;-72
2022/11/16 11:05:34;;;;;;;6.35;0.82;;;;;;;15.82;100.00;97520.28;4991141;28;20033;-72
2022/11/16 11:08:06;;;;;;;2.03;0.68;;;;;;;16.16;100.00;97528.81;4984912;28;20161;-72
2022/11/16 11:10:37;;;;;;;4.18;0.90;;;;;;;20.58;85.31;97508.97;4982876;28;20023;-72
2022/11/16 11:13:18;;;;;;;6.68;0.90;;;;;;;23.44;61.49;97518.41;4988794;28;20397;-72
2022/11/16 11:15:43;;;;;;;2.20;0.80;;;;;;;22.52;59.52;97505.03;5003361;28;20022;-71
2022/11/16 11:18:18;;;;;;;2.85;0.60;;;;;;;21.42;65.37;97508.00;4986599;28;20029;-72
2022/11/16 11:20:50;;;;;;;2.78;0.80;;;;;;;19.34;71.70;97510.94;4987109;28;20424;-71
2022/11/16 11:23:19;;;;;;;2.83;0.75;;;;;;;17.81;83.38;97512.97;4987002;28;20023;-71
2022/11/16 11:25:54;;;;;;;2.95;0.80;;;;;;;16.58;100.00;97499.63;5005018;28;20781;-71
2022/11/16 11:28:30;;;;;;;3.90;0.88;;;;;;;15.74;100.00;97509.91;4983390;28;20098;-72
2022/11/16 11:30:59;;;;;;;1.80;0.82;;;;;;;15.27;100.00;97522.53;4983339;28;20029;-72
2022/11/16 11:33:28;;;;;;;1.83;0.77;;;;;;;18.14;99.04;97492.25;4987390;28;20062;-73
2022/11/16 11:36:08;;;;;;;4.47;0.90;;;;;;;19.74;79.27;97506.06;4984430;28;20488;-72
2022/11/16 11:38:53;;;;;;;1.08;0.50;;;;;;;23.75;64.67;97498.22;5000931;28;20018;-71
2022/11/16 11:41:19;;;;;;;3.97;0.75;;;;;;;24.15;56.00;97504.47;4987207;28;20062;-71
2022/11/16 11:44:02;;;;;;;3.53;0.82;;;;;;;23.26;55.93;97508.41;4980270;28;20066;-71
2022/11/16 11:46:32;;;;;;;1.70;0.65;;;;;;;22.78;55.27;97490.63;4984959;28;20026;-71
2022/11/16 11:49:12;;;;;;;2.72;1.40;;;;;;;23.64;55.77;97486.66;4980899;28;20113;-74
2022/11/16 11:51:41;;;;;;;5.15;0.77;;;;;;;24.39;51.67;97490.19;4984153;28;20882;-71
2022/11/16 11:54:12;;;;;;;;;;;;;;;24.21;51.80;97496.84;4985388;28;20044;-71
2022/11/16 11:56:37;;;;;;;4.40;0.90;;;;;;;23.74;52.30;97500.19;4982591;28;19913;-71
2022/11/16 11:59:03;;;;;;;4.13;1.38;;;;;;;22.54;54.97;97502.78;4999268;28;20383;-71
2022/11/16 12:01:51;;;;;;;2.85;1.00;;;;;;;24.38;52.70;97490.50;4982937;28;20057;-75
2022/11/16 12:04:27;;;;;;;6.00;0.98;;;;;;;24.96;50.33;97486.34;4985660;28;20035;-75
2022/11/16 12:07:01;;;;;;;3.90;1.00;;;;;;;25.35;48.57;97490.00;4978858;28;21622;-75
2022/11/16 12:10:12;;;;;;;3.40;0.88;;;;;;;25.77;48.11;97490.09;4978997;28;20034;-72
2022/11/16 12:12:54;;;;;;;2.90;0.80;;;;;;;26.33;47.34;97487.97;4983752;28;20034;-72
2022/11/16 12:15:52;;;;;;;3.63;0.73;;;;;;;24.65;49.35;97473.59;4984019;28;20026;-73
2022/11/16 12:18:36;;;;;;;4.43;0.90;;;;;;;24.32;48.84;97480.75;4983239;28;20484;-77
2022/11/16 12:21:16;;;;;;;2.35;1.35;;;;;;;23.76;51.08;97483.28;4975779;28;20031;-76
2022/11/16 12:23:50;;;;;;;5.13;1.00;;;;;;;21.33;55.97;97482.31;4986416;28;20487;-77
2022/11/16 12:26:42;;;;;;;2.53;0.82;;;;;;;22.04;54.24;97469.78;5003587;28;20022;-81
2022/11/16 12:29:26;;;;;;;2.28;0.63;;;;;;;23.11;51.50;97473.81;4991210;28;20048;-78
2022/11/16 12:32:02;;;;;;;1.98;0.70;;;;;;;23.40;50.51;97470.50;4991033;28;20081;-77
2022/11/16 12:34:39;;;;;;;3.90;0.75;;;;;;;22.87;50.67;97466.69;4982493;28;20022;-76